Flight Track Log - Related Links

Times and Time Zones

All times are in EDT time to prevent confusion due to time zone crossing. See the N845AE flight status page for this flight to view local times or setup timezone preferences in your user account.


Time Position Orientation Groundspeed Altitude Reporting Facility
EDT Latitude Longitude Course Direction KTS MPH feet Rate Location/Type
Fri 04:57:52 PM 45.3167 -75.6000 259° West 50 58 800  Level Toronto Center
Fri 04:58:36 PM 45.3333 -75.6167 325° Northwest 150 173 2,600 2,135 Climbing Montreal Center
Fri 04:59:36 PM 45.3833 -75.5833 25° Northeast 240 276 4,500 2,350 Climbing Montreal Center
Fri 05:00:00 PM 45.3667 -76.0327 270° West  Level FlightAware Approximate
Fri 05:00:36 PM 45.3833 -75.6500 270° West 180 207 7,300  Level Montreal Center
Fri 05:01:00 PM 45.3774 -76.1568 278° West  Level FlightAware Approximate
Fri 05:01:36 PM 45.3667 -75.7500 257° West 220 253 8,500  Level Montreal Center
Fri 05:02:00 PM 45.3893 -76.2656 245° Southwest  Level FlightAware Approximate
Fri 05:02:36 PM 45.3667 -75.8500 270° West 250 288 10,400  Level Montreal Center
Fri 05:03:00 PM 45.3596 -76.3825 259° West  Level FlightAware Approximate
Fri 05:03:36 PM 45.3667 -75.9667 270° West 270 311 11,500  Level Montreal Center
Fri 05:04:36 PM 45.3500 -76.0667 257° West 300 345 12,500 1,050 Climbing Montreal Center
Fri 05:05:36 PM 45.3167 -76.2000 250° West 320 368 13,600 1,050 Climbing Montreal Center
Fri 05:06:36 PM 45.3000 -76.3333 260° West 330 380 14,600 1,150 Climbing Montreal Center
Fri 05:07:36 PM 45.2833 -76.4667 260° West 340 391 15,900 1,150 Climbing Montreal Center
Fri 05:08:36 PM 45.2667 -76.5833 259° West 340 391 16,900 1,150 Climbing Montreal Center
Fri 05:09:36 PM 45.2500 -76.7333 261° West 340 391 18,200 1,250 Climbing Montreal Center
Fri 05:10:36 PM 45.2333 -76.8667 260° West 340 391 19,400 1,150 Climbing Montreal Center
Fri 05:11:36 PM 45.2167 -76.9833 259° West 350 403 20,500 1,150 Climbing Montreal Center
Fri 05:12:36 PM 45.1833 -77.1333 253° West 350 403 21,700 1,150 Climbing Montreal Center
Fri 05:13:36 PM 45.1500 -77.2500 248° West 350 403 22,800 1,150 Climbing Montreal Center
Fri 05:14:36 PM 45.1167 -77.4000 253° West 350 403 24,000 1,150 Climbing Montreal Center
Fri 05:15:36 PM 45.1000 -77.5333 260° West 350 403 25,100 1,150 Climbing Montreal Center
Fri 05:16:36 PM 45.0667 -77.6667 251° West 360 414 26,300 1,184 Climbing Montreal Center
Fri 05:16:52 PM 45.0500 -77.6667 180° South 350 403 26,600 1,105 Climbing Toronto Center
Fri 05:17:52 PM 45.0167 -77.8000 251° West 350 403 27,700 1,100 Climbing Toronto Center
Fri 05:18:52 PM 44.9833 -77.9333 251° West 340 391 28,800 1,150 Climbing Toronto Center
Fri 05:19:52 PM 44.9500 -78.0500 248° West 340 391 30,000 1,100 Climbing Toronto Center
Fri 05:20:52 PM 44.9167 -78.1667 248° West 340 391 31,000 1,100 Climbing Toronto Center
Fri 05:21:52 PM 44.8833 -78.3167 253° West 350 403 32,200 1,150 Climbing Toronto Center
Fri 05:22:52 PM 44.8500 -78.4333 248° West 340 391 33,300 1,100 Climbing Toronto Center
Fri 05:23:52 PM 44.8333 -78.5500 259° West 340 391 34,400 981 Climbing Toronto Center
Fri 05:24:36 PM 44.8000 -78.6833 251° West 340 391 35,000 865 Climbing Montreal Center
Fri 05:25:36 PM 44.7667 -78.8000 248° West 340 391 35,900 500 Climbing Montreal Center
Fri 05:26:36 PM 44.7333 -78.9167 248° West 340 391 36,000 79 Climbing Montreal Center
Fri 05:26:52 PM 44.7167 -78.9333 215° Southwest 350 403 36,000  Level Toronto Center
Fri 05:27:52 PM 44.6667 -79.0667 242° Southwest 370 426 36,000  Level Toronto Center
Fri 05:28:52 PM 44.6167 -79.1833 239° Southwest 380 437 36,000  Level Toronto Center
Fri 05:29:52 PM 44.5667 -79.3333 245° Southwest 390 449 36,000  Level Toronto Center
Fri 05:30:52 PM 44.5167 -79.4667 242° Southwest 390 449 36,000  Level Toronto Center
Fri 05:31:52 PM 44.4667 -79.6167 245° Southwest 390 449 36,000  Level Toronto Center
Fri 05:32:52 PM 44.4167 -79.7333 239° Southwest 390 449 36,000  Level Toronto Center
Fri 05:33:52 PM 44.3667 -79.8667 242° Southwest 390 449 36,000  Level Toronto Center
Fri 05:34:52 PM 44.3167 -80.0000 242° Southwest 390 449 36,000  Level Toronto Center
Fri 05:35:52 PM 44.2667 -80.1500 245° Southwest 390 449 36,000  Level Toronto Center
Fri 05:36:52 PM 44.2167 -80.2833 242° Southwest 390 449 36,000  Level Toronto Center
Fri 05:37:52 PM 44.1667 -80.4000 239° Southwest 390 449 36,000  Level Toronto Center
Fri 05:38:52 PM 44.1167 -80.5333 242° Southwest 390 449 36,000  Level Toronto Center
Fri 05:39:52 PM 44.0667 -80.6833 245° Southwest 390 449 36,000  Level Toronto Center
Fri 05:40:52 PM 44.0167 -80.8167 242° Southwest 390 449 36,000 -400 Level Toronto Center
Fri 05:41:52 PM 43.9500 -80.9500 235° Southwest 400 460 35,200 -850 Descending Toronto Center
Fri 05:42:52 PM 43.9000 -81.0833 243° Southwest 400 460 34,300 -600 Descending Toronto Center
Fri 05:43:52 PM 43.8500 -81.2333 245° Southwest 380 437 34,000 -150 Descending Toronto Center
Fri 05:44:52 PM 43.8000 -81.3500 239° Southwest 380 437 34,000  Level Toronto Center
Fri 05:45:52 PM 43.7500 -81.4833 243° Southwest 380 437 34,000  Level Toronto Center
Fri 05:46:52 PM 43.7000 -81.6000 239° Southwest 380 437 34,000  Level Toronto Center
Fri 05:47:52 PM 43.6500 -81.7333 243° Southwest 390 449 34,000  Level Toronto Center
Fri 05:48:52 PM 43.6000 -81.8667 243° Southwest 390 449 34,000  Level Toronto Center
Fri 05:49:52 PM 43.5333 -81.9833 232° Southwest 390 449 34,000  Level Toronto Center
Fri 05:50:52 PM 43.4833 -82.1167 243° Southwest 390 449 34,000  Level Toronto Center
Fri 05:51:09 PM 43.4872 -82.1539 278° West 391 450 34,000  Level Cleveland Center
Fri 05:52:09 PM 43.4542 -82.2933 252° West 386 444 34,000 -200 Level Cleveland Center
Fri 05:53:09 PM 43.4247 -82.4383 254° West 391 450 33,600 -650 Descending Cleveland Center
Fri 05:54:09 PM 43.3933 -82.5800 253° West 391 450 32,700 -932 Descending Cleveland Center
Fri 05:54:52 PM 43.3500 -82.7000 244° Southwest 390 449 32,000 -700 Descending Toronto Center
Fri 05:55:09 PM 43.3614 -82.7275 300° West 398 458 32,000  Level Cleveland Center
Fri 05:56:09 PM 43.3294 -82.8692 253° West 393 452 32,000  Level Cleveland Center
Fri 05:57:09 PM 43.2975 -83.0133 253° West 393 452 32,000  Level Cleveland Center
Fri 05:58:09 PM 43.2631 -83.1547 252° West 393 452 32,000  Level Cleveland Center
Fri 05:59:09 PM 43.2328 -83.2958 254° West 393 452 32,000  Level Cleveland Center
Fri 06:00:09 PM 43.2003 -83.4311 252° West 393 452 32,000  Level Cleveland Center
Fri 06:01:09 PM 43.1675 -83.5778 253° West 393 452 32,000  Level Cleveland Center
Fri 06:02:09 PM 43.1367 -83.7158 253° West 393 452 32,000  Level Cleveland Center
Fri 06:03:09 PM 43.1017 -83.8561 251° West 393 452 32,000  Level Cleveland Center
Fri 06:04:09 PM 43.0706 -83.9939 253° West 393 452 32,000  Level Cleveland Center
Fri 06:05:09 PM 43.0369 -84.1339 252° West 393 452 32,000  Level Cleveland Center
Fri 06:06:50 PM 42.9844 -84.3597 252° West 389 448 32,000  Level Chicago Center
Fri 06:07:52 PM 42.9508 -84.5000 252° West 389 448 32,000  Level Chicago Center
Fri 06:08:54 PM 42.9103 -84.6675 252° West 388 447 32,000  Level Chicago Center
Fri 06:09:56 PM 42.8767 -84.8081 252° West 390 449 32,000  Level Chicago Center
Fri 06:10:58 PM 42.8442 -84.9492 253° West 391 450 32,000  Level Chicago Center
Fri 06:12:00 PM 42.8297 -85.0981 263° West 394 453 32,000 -48 Level Chicago Center
Fri 06:13:02 PM 42.8144 -85.2439 262° West 392 451 31,900 -968 Descending Chicago Center
Fri 06:14:04 PM 42.7983 -85.3942 262° West 397 457 30,000 -2,032 Descending Chicago Center
Fri 06:15:06 PM 42.7742 -85.5708 260° West 392 451 27,700 -2,160 Descending Chicago Center
Fri 06:16:09 PM 42.7478 -85.7172 256° West 394 453 25,500 -1,824 Descending Chicago Center
Fri 06:17:11 PM 42.7206 -85.8686 256° West 406 467 23,900 -1,645 Descending Chicago Center
Fri 06:18:13 PM 42.6944 -86.0131 256° West 395 455 22,100 -1,597 Descending Chicago Center
Fri 06:19:15 PM 42.6683 -86.1539 256° West 384 442 20,600 -1,016 Descending Chicago Center
Fri 06:20:17 PM 42.6439 -86.2886 256° West 372 428 20,000 -968 Descending Chicago Center
Fri 06:21:19 PM 42.6181 -86.4197 255° West 362 417 18,600 -1,839 Descending Chicago Center
Fri 06:22:21 PM 42.5878 -86.5828 256° West 370 426 16,200 -2,081 Descending Chicago Center
Fri 06:23:23 PM 42.5628 -86.7136 255° West 363 418 14,300 -1,790 Descending Chicago Center
Fri 06:24:25 PM 42.5344 -86.8358 253° West 349 402 12,500 -1,742 Descending Chicago Center
Fri 06:25:27 PM 42.4997 -86.9522 248° West 338 389 10,700 -1,210 Descending Chicago Center
Fri 06:26:29 PM 42.4681 -87.0694 250° West 333 383 10,000 -336 Descending Chicago Center
Fri 06:27:32 PM 42.4364 -87.1803 249° West 321 369 10,000 -384 Level Chicago Center
Fri 06:28:34 PM 42.4075 -87.2853 250° West 253 291 9,200 -774 Descending Chicago Center
Fri 06:29:36 PM 42.3725 -87.3589 237° Southwest 258 297 8,400 -871 Descending Chicago Center
Fri 06:30:38 PM 42.2983 -87.3797 192° South 266 306 7,400 -1,016 Descending Chicago Center
Fri 06:31:40 PM 42.2269 -87.3986 191° South 263 303 6,300 -871 Descending Chicago Center
Fri 06:32:42 PM 42.1586 -87.4172 191° South 256 295 5,600 -848 Descending Chicago Center
Fri 06:33:19 PM 42.1000 -87.4333 192° South 259 298 4,900 -990 Descending Chicago TRACON
Fri 06:34:19 PM 42.0333 -87.4500 191° South 245 282 4,000 -429 Descending Chicago TRACON
Fri 06:35:25 PM 42.0000 -87.5167 236° Southwest 229 264 4,000  Level Chicago TRACON
Fri 06:36:25 PM 42.0000 -87.6000 270° West 229 264 4,000 -53 Level Chicago TRACON
Fri 06:37:19 PM 42.0000 -87.6833 270° West 224 258 3,900 -632 Descending Chicago TRACON
Fri 06:38:19 PM 42.0000 -87.7667 270° West 213 245 2,800 -1,100 Descending Chicago TRACON

Login

Don't have an account? Register now (free) for customized features, flight alerts, and more!